Aviation Digital Data Service (ADDS)

Output produced by METARs form (1802 UTC 19 October 2017)
found at http://www.aviationweather.gov/adds/metars/
 
SLCO 191700Z 30005KT 9999 SCT025 FEW027CB 34/25 Q1009
TAF SLCO 191700Z 1918/2018 35009KT 9999 SCT025 TX37/1920Z TN23/2010Z 
     PROB40 
     TEMPO 1919/1922 8000 VCSH FEW027CB 
     BECMG 1923/2002 00000KT SCT015
       
SLCB 191700Z 04017KT 360V100 9999 SCT033 FEW036CB SCT080 21/01 Q1021
TAF SLCB 191700Z 1918/2018 32015KT 9999 FEW033 FEW036CB TX32/1919Z TN13/2010Z 
     TEMPO 1920/1922 24010KT TS 
     BECMG 2001/2003 00000KT SCT030 SCT080 
     BECMG 2014/2016 25010KT
       
SLLP 191727Z 04017G28KT 7000 -TSRAGS SCT015 FEW017CB SCT070 BKN200 10/M00 Q1037
TAF SLLP 191700Z 1918/2018 13013KT 9999 FEW017 FEW020CB TX17/1920Z TN03/2010Z 
     PROB40 
     TEMPO 1922/2001 8000 VCTSSH 
     BECMG 2002/2005 05005KT SCT015 FEW017CB SCT070 
     PROB40 
     TEMPO 2007/2010 4000E VCFG FEW002 
     BECMG 2013/2015 26005KT FEW015
       
SLOR 191700Z 35007KT 9999 FEW020 FEW023CB 19/04 Q1033
SLPO 191600Z 06005KT 9999 SCT017 16/03 Q1037
SLPS 191700Z 09004KT 6000 SCT020 39/22 Q1008
TAF SLPS 191700Z 1918/2018 06005KT 8000 NSC TX38/1919Z TN24/2010Z 
     BECMG 2002/2004 VRB02KT 6000 SHRA BKN020 FEW030CB OVC070 
     BECMG 2008/ 2010 00000KT 9999 NSW BKN023
       
SLRI 191700Z 36008KT 9999 BKN017 FEW020CB BKN200 35/23 Q1010
SLSA 191700Z 34014KT 8000 TS VCSH BKN020 FEW023CB 36/24 Q1008
SLET 191700Z 33020G31KT 7000 SCT020 SCT070 35/22 Q1008
TAF SLET 191700Z 1918/2018 34012G28KT 5000 FU BKN020 FEW027TCU TX36/1918Z TN20/2010Z 
     TEMPO 1920/1923 18015KT 5000 TSRA BKN017 FEW030CB BKN070 
     TEMPO 2001/2003 9000 RA BKN023 OVC070 
     BECMG 2009/2012 22005KT 9999 NSW BKN020 BKN070
       
SLVR 191700Z 33020G30KT 5000 FU SCT020 FEW030CB BKN200 35/21 Q1009
TAF SLVR 191700Z 1918/2018 34012G26KT 5000 FU BKN020 FEW027TCU TX36/1918Z TN20/2010Z 
     TEMPO 1921/1923 18015KT 5000 TSRA BKN017 FEW030CB BKN070 
     TEMPO 2001/2003 9000 RA BKN023 OVC070 
     BECMG 2010/2012 22005KT 9999 NSW BKN020 BKN070
       
SLTJ 191700Z 13008KT 9999 BKN027 BKN070 17/11 Q1023
TAF SLTJ 191700Z 1918/2018 15010KT 9999 BKN027 BKN070 TX23/1919Z TN14/2010Z 
     PROB30 
     TEMPO 1923/2001 FEW030TCU SCT070 
     BECMG 2003/2005 00000KT SCT030 
     BECMG 2014/2016 13010KT
       
SLTR 191700Z 30008KT 260V350 7000 FEW020 FEW023CB SCT200 36/24 Q1008
TAF SLTR 191700Z 1918/2018 34010KT 7000 SCT020 TX37/1920Z TN23/2010Z 
     PROB40 
     TEMPO 1919/1921 FEW023CB 
     BECMG 1923/2002 00000KT SCT015
       
SLVM 191600Z 18010G22KT 9999 SCT025 OVC070 24/15 Q1017
SLYA 191600Z 18012KT 9999 BKN025 OVC070 20/15 Q1020